Terminal Aerodrome Forecast
Issued by NWS Wilmington, OH

Current Version | Previous Version | Graphics & Text | Print | Product List | Glossary On
Versions: 1 2 3 4 5 6 7 8 9 10 11 12
000
FTUS41 KILN 090500
TAFCMH
TAF
KCMH 090537Z 0906/1006 26005KT P6SM SCT090
     FM091500 27010KT P6SM BKN040
     FM100000 31006KT P6SM SCT040=

USA.gov is the U.S. government's official web portal to all federal, state and local government web resources and services.